sensor_id;sensor_type;location;lat;lon;timestamp;P1;durP1;ratioP1;P2;durP2;ratioP2
37203;SDS011;23098;48.054;10.636;2023-02-28T00:00:08;1.05;;;0.77;;
37203;SDS011;23098;48.054;10.636;2023-02-28T00:02:36;2.08;;;1.63;;
37203;SDS011;23098;48.054;10.636;2023-02-28T00:05:02;1.45;;;1.30;;
37203;SDS011;23098;48.054;10.636;2023-02-28T00:07:32;3.47;;;1.90;;
37203;SDS011;23098;48.054;10.636;2023-02-28T00:09:57;2.30;;;1.92;;
37203;SDS011;23098;48.054;10.636;2023-02-28T00:12:23;3.72;;;1.70;;
37203;SDS011;23098;48.054;10.636;2023-02-28T00:14:50;2.95;;;1.70;;
37203;SDS011;23098;48.054;10.636;2023-02-28T00:17:16;1.13;;;1.05;;
37203;SDS011;23098;48.054;10.636;2023-02-28T00:19:49;4.78;;;2.92;;
37203;SDS011;23098;48.054;10.636;2023-02-28T00:22:16;1.50;;;1.40;;
37203;SDS011;23098;48.054;10.636;2023-02-28T00:24:43;2.65;;;1.90;;
37203;SDS011;23098;48.054;10.636;2023-02-28T00:27:08;2.78;;;1.75;;
37203;SDS011;23098;48.054;10.636;2023-02-28T00:29:34;3.90;;;2.50;;
37203;SDS011;23098;48.054;10.636;2023-02-28T00:32:00;7.68;;;2.83;;
37203;SDS011;23098;48.054;10.636;2023-02-28T00:34:25;3.08;;;1.98;;
37203;SDS011;23098;48.054;10.636;2023-02-28T00:36:51;1.15;;;0.88;;
37203;SDS011;23098;48.054;10.636;2023-02-28T00:39:16;5.25;;;2.63;;
37203;SDS011;23098;48.054;10.636;2023-02-28T00:41:42;3.85;;;2.38;;
37203;SDS011;23098;48.054;10.636;2023-02-28T00:44:08;4.18;;;1.98;;
37203;SDS011;23098;48.054;10.636;2023-02-28T00:46:34;3.70;;;2.15;;
37203;SDS011;23098;48.054;10.636;2023-02-28T00:49:00;3.13;;;1.83;;
37203;SDS011;23098;48.054;10.636;2023-02-28T00:51:25;3.38;;;2.05;;
37203;SDS011;23098;48.054;10.636;2023-02-28T00:53:51;6.15;;;1.38;;
37203;SDS011;23098;48.054;10.636;2023-02-28T00:56:17;5.15;;;2.80;;
37203;SDS011;23098;48.054;10.636;2023-02-28T00:58:42;1.83;;;1.25;;
37203;SDS011;23098;48.054;10.636;2023-02-28T01:01:08;7.30;;;3.00;;
37203;SDS011;23098;48.054;10.636;2023-02-28T01:03:34;5.10;;;2.55;;
37203;SDS011;23098;48.054;10.636;2023-02-28T01:05:59;4.05;;;2.72;;
37203;SDS011;23098;48.054;10.636;2023-02-28T01:08:25;1.70;;;1.50;;
37203;SDS011;23098;48.054;10.636;2023-02-28T01:10:51;0.60;;;0.60;;
37203;SDS011;23098;48.054;10.636;2023-02-28T01:13:17;3.65;;;2.00;;
37203;SDS011;23098;48.054;10.636;2023-02-28T01:15:55;3.50;;;1.42;;
37203;SDS011;23098;48.054;10.636;2023-02-28T01:18:21;1.23;;;1.13;;
37203;SDS011;23098;48.054;10.636;2023-02-28T01:20:47;3.20;;;2.35;;
37203;SDS011;23098;48.054;10.636;2023-02-28T01:23:13;3.35;;;2.25;;
37203;SDS011;23098;48.054;10.636;2023-02-28T01:25:39;6.28;;;2.40;;
37203;SDS011;23098;48.054;10.636;2023-02-28T01:28:04;1.70;;;1.52;;
37203;SDS011;23098;48.054;10.636;2023-02-28T01:30:31;2.97;;;1.90;;
37203;SDS011;23098;48.054;10.636;2023-02-28T01:32:56;7.30;;;2.90;;
37203;SDS011;23098;48.054;10.636;2023-02-28T01:35:22;1.67;;;1.30;;
37203;SDS011;23098;48.054;10.636;2023-02-28T01:37:48;1.75;;;1.55;;
37203;SDS011;23098;48.054;10.636;2023-02-28T01:40:13;1.40;;;1.30;;
37203;SDS011;23098;48.054;10.636;2023-02-28T01:42:39;2.30;;;1.83;;
37203;SDS011;23098;48.054;10.636;2023-02-28T01:47:56;3.25;;;1.77;;
37203;SDS011;23098;48.054;10.636;2023-02-28T01:50:28;6.32;;;2.78;;
37203;SDS011;23098;48.054;10.636;2023-02-28T01:52:59;2.75;;;1.88;;
37203;SDS011;23098;48.054;10.636;2023-02-28T01:55:29;3.17;;;2.10;;
37203;SDS011;23098;48.054;10.636;2023-02-28T01:57:56;4.05;;;2.10;;
37203;SDS011;23098;48.054;10.636;2023-02-28T02:00:26;3.28;;;1.85;;
37203;SDS011;23098;48.054;10.636;2023-02-28T02:02:54;3.03;;;1.80;;
37203;SDS011;23098;48.054;10.636;2023-02-28T02:05:28;7.80;;;4.38;;
37203;SDS011;23098;48.054;10.636;2023-02-28T02:08:03;4.82;;;1.63;;
37203;SDS011;23098;48.054;10.636;2023-02-28T02:10:33;5.38;;;2.67;;
37203;SDS011;23098;48.054;10.636;2023-02-28T02:16:47;6.32;;;3.55;;
37203;SDS011;23098;48.054;10.636;2023-02-28T02:18:53;2.58;;;1.40;;
37203;SDS011;23098;48.054;10.636;2023-02-28T02:26:40;3.72;;;1.73;;
37203;SDS011;23098;48.054;10.636;2023-02-28T02:34:59;2.72;;;2.20;;
37203;SDS011;23098;48.054;10.636;2023-02-28T02:43:34;2.13;;;1.38;;
37203;SDS011;23098;48.054;10.636;2023-02-28T02:46:20;5.55;;;2.33;;
37203;SDS011;23098;48.054;10.636;2023-02-28T02:48:48;2.15;;;1.42;;
37203;SDS011;23098;48.054;10.636;2023-02-28T02:51:17;4.78;;;2.80;;
37203;SDS011;23098;48.054;10.636;2023-02-28T02:53:50;1.70;;;1.10;;
37203;SDS011;23098;48.054;10.636;2023-02-28T02:56:21;2.95;;;1.85;;
37203;SDS011;23098;48.054;10.636;2023-02-28T02:58:55;2.20;;;1.80;;
37203;SDS011;23098;48.054;10.636;2023-02-28T03:01:26;1.85;;;1.55;;
37203;SDS011;23098;48.054;10.636;2023-02-28T03:03:56;2.03;;;1.75;;
37203;SDS011;23098;48.054;10.636;2023-02-28T03:06:23;1.98;;;1.10;;
37203;SDS011;23098;48.054;10.636;2023-02-28T03:08:49;5.20;;;2.67;;
37203;SDS011;23098;48.054;10.636;2023-02-28T03:11:14;3.67;;;2.05;;
37203;SDS011;23098;48.054;10.636;2023-02-28T03:16:32;3.60;;;2.30;;
37203;SDS011;23098;48.054;10.636;2023-02-28T03:24:19;5.82;;;2.72;;
37203;SDS011;23098;48.054;10.636;2023-02-28T03:26:49;1.35;;;1.25;;
37203;SDS011;23098;48.054;10.636;2023-02-28T03:29:26;2.38;;;1.88;;
37203;SDS011;23098;48.054;10.636;2023-02-28T03:32:08;4.82;;;3.15;;
37203;SDS011;23098;48.054;10.636;2023-02-28T03:34:47;4.57;;;2.50;;
37203;SDS011;23098;48.054;10.636;2023-02-28T03:37:35;2.85;;;2.08;;
37203;SDS011;23098;48.054;10.636;2023-02-28T03:40:07;2.05;;;1.48;;
37203;SDS011;23098;48.054;10.636;2023-02-28T03:42:37;1.50;;;1.40;;
37203;SDS011;23098;48.054;10.636;2023-02-28T03:45:39;4.25;;;1.67;;
37203;SDS011;23098;48.054;10.636;2023-02-28T03:48:15;2.58;;;2.05;;
37203;SDS011;23098;48.054;10.636;2023-02-28T03:50:47;5.97;;;3.00;;
37203;SDS011;23098;48.054;10.636;2023-02-28T03:53:27;1.38;;;1.05;;
37203;SDS011;23098;48.054;10.636;2023-02-28T03:56:06;6.18;;;3.00;;
37203;SDS011;23098;48.054;10.636;2023-02-28T03:58:43;3.75;;;1.02;;
37203;SDS011;23098;48.054;10.636;2023-02-28T04:01:20;5.13;;;2.17;;
37203;SDS011;23098;48.054;10.636;2023-02-28T04:03:52;1.58;;;1.30;;
37203;SDS011;23098;48.054;10.636;2023-02-28T04:06:19;2.35;;;1.60;;
37203;SDS011;23098;48.054;10.636;2023-02-28T04:08:46;1.55;;;1.25;;
37203;SDS011;23098;48.054;10.636;2023-02-28T04:11:18;1.55;;;1.45;;
37203;SDS011;23098;48.054;10.636;2023-02-28T04:13:57;4.97;;;2.80;;
37203;SDS011;23098;48.054;10.636;2023-02-28T04:16:22;4.40;;;2.75;;
37203;SDS011;23098;48.054;10.636;2023-02-28T04:18:48;1.63;;;1.15;;
37203;SDS011;23098;48.054;10.636;2023-02-28T04:21:13;6.28;;;3.22;;
37203;SDS011;23098;48.054;10.636;2023-02-28T04:23:39;3.95;;;1.67;;
37203;SDS011;23098;48.054;10.636;2023-02-28T04:26:05;9.18;;;4.57;;
37203;SDS011;23098;48.054;10.636;2023-02-28T04:28:31;4.55;;;2.75;;
37203;SDS011;23098;48.054;10.636;2023-02-28T04:30:58;5.70;;;3.22;;
37203;SDS011;23098;48.054;10.636;2023-02-28T04:33:26;7.35;;;3.63;;
37203;SDS011;23098;48.054;10.636;2023-02-28T04:35:58;3.72;;;1.90;;
37203;SDS011;23098;48.054;10.636;2023-02-28T04:38:29;6.07;;;3.55;;
37203;SDS011;23098;48.054;10.636;2023-02-28T04:40:58;11.93;;;1.13;;
37203;SDS011;23098;48.054;10.636;2023-02-28T04:43:25;5.78;;;2.60;;
37203;SDS011;23098;48.054;10.636;2023-02-28T04:45:51;4.55;;;2.72;;
37203;SDS011;23098;48.054;10.636;2023-02-28T04:48:17;5.07;;;2.03;;
37203;SDS011;23098;48.054;10.636;2023-02-28T04:50:43;4.53;;;2.65;;
37203;SDS011;23098;48.054;10.636;2023-02-28T04:53:08;3.97;;;2.55;;
37203;SDS011;23098;48.054;10.636;2023-02-28T04:55:34;3.00;;;2.08;;
37203;SDS011;23098;48.054;10.636;2023-02-28T04:57:59;4.50;;;2.08;;
37203;SDS011;23098;48.054;10.636;2023-02-28T05:00:25;3.85;;;2.47;;
37203;SDS011;23098;48.054;10.636;2023-02-28T05:02:50;4.05;;;2.92;;
37203;SDS011;23098;48.054;10.636;2023-02-28T05:05:16;6.25;;;2.72;;
37203;SDS011;23098;48.054;10.636;2023-02-28T05:07:43;5.35;;;3.00;;
37203;SDS011;23098;48.054;10.636;2023-02-28T05:10:09;5.25;;;3.50;;
37203;SDS011;23098;48.054;10.636;2023-02-28T05:12:35;4.63;;;2.75;;
37203;SDS011;23098;48.054;10.636;2023-02-28T05:15:01;9.07;;;4.70;;
37203;SDS011;23098;48.054;10.636;2023-02-28T05:17:27;5.10;;;2.70;;
37203;SDS011;23098;48.054;10.636;2023-02-28T05:19:53;5.05;;;3.33;;
37203;SDS011;23098;48.054;10.636;2023-02-28T05:22:19;4.85;;;2.22;;
37203;SDS011;23098;48.054;10.636;2023-02-28T05:24:45;5.97;;;2.95;;
37203;SDS011;23098;48.054;10.636;2023-02-28T05:27:11;4.95;;;3.33;;
37203;SDS011;23098;48.054;10.636;2023-02-28T05:29:36;3.47;;;2.58;;
37203;SDS011;23098;48.054;10.636;2023-02-28T05:32:08;8.23;;;4.35;;
37203;SDS011;23098;48.054;10.636;2023-02-28T05:34:35;6.32;;;3.85;;
37203;SDS011;23098;48.054;10.636;2023-02-28T05:37:04;8.85;;;4.70;;
37203;SDS011;23098;48.054;10.636;2023-02-28T05:39:31;5.45;;;3.33;;
37203;SDS011;23098;48.054;10.636;2023-02-28T05:41:57;7.82;;;4.55;;
37203;SDS011;23098;48.054;10.636;2023-02-28T05:44:23;5.88;;;3.30;;
37203;SDS011;23098;48.054;10.636;2023-02-28T05:46:49;6.65;;;4.43;;
37203;SDS011;23098;48.054;10.636;2023-02-28T05:49:14;9.05;;;3.72;;
37203;SDS011;23098;48.054;10.636;2023-02-28T05:51:40;5.53;;;4.15;;
37203;SDS011;23098;48.054;10.636;2023-02-28T05:54:05;5.28;;;3.20;;
37203;SDS011;23098;48.054;10.636;2023-02-28T05:56:31;3.40;;;2.50;;
37203;SDS011;23098;48.054;10.636;2023-02-28T05:58:59;3.72;;;2.60;;
37203;SDS011;23098;48.054;10.636;2023-02-28T06:01:46;9.55;;;5.70;;
37203;SDS011;23098;48.054;10.636;2023-02-28T06:04:13;7.93;;;3.03;;
37203;SDS011;23098;48.054;10.636;2023-02-28T06:06:43;14.73;;;6.30;;
37203;SDS011;23098;48.054;10.636;2023-02-28T06:09:09;12.48;;;6.57;;
37203;SDS011;23098;48.054;10.636;2023-02-28T06:11:35;12.27;;;7.13;;
37203;SDS011;23098;48.054;10.636;2023-02-28T06:14:01;16.83;;;7.55;;
37203;SDS011;23098;48.054;10.636;2023-02-28T06:16:27;7.57;;;4.85;;
37203;SDS011;23098;48.054;10.636;2023-02-28T06:18:54;6.68;;;3.97;;
37203;SDS011;23098;48.054;10.636;2023-02-28T06:21:21;8.63;;;3.72;;
37203;SDS011;23098;48.054;10.636;2023-02-28T06:23:47;11.35;;;7.05;;
37203;SDS011;23098;48.054;10.636;2023-02-28T06:26:13;6.60;;;4.22;;
37203;SDS011;23098;48.054;10.636;2023-02-28T06:28:38;11.93;;;6.82;;
37203;SDS011;23098;48.054;10.636;2023-02-28T06:31:08;12.15;;;7.25;;
37203;SDS011;23098;48.054;10.636;2023-02-28T06:33:35;7.35;;;4.95;;
37203;SDS011;23098;48.054;10.636;2023-02-28T06:36:01;15.40;;;9.02;;
37203;SDS011;23098;48.054;10.636;2023-02-28T06:38:27;9.18;;;5.47;;
37203;SDS011;23098;48.054;10.636;2023-02-28T06:40:55;9.85;;;6.35;;
37203;SDS011;23098;48.054;10.636;2023-02-28T06:43:22;11.38;;;5.63;;
37203;SDS011;23098;48.054;10.636;2023-02-28T06:45:48;7.07;;;4.35;;
37203;SDS011;23098;48.054;10.636;2023-02-28T06:48:13;10.63;;;5.85;;
37203;SDS011;23098;48.054;10.636;2023-02-28T06:50:39;17.92;;;9.57;;
37203;SDS011;23098;48.054;10.636;2023-02-28T06:53:05;12.25;;;7.22;;
37203;SDS011;23098;48.054;10.636;2023-02-28T06:55:30;10.95;;;5.88;;
37203;SDS011;23098;48.054;10.636;2023-02-28T06:57:56;14.43;;;8.05;;
37203;SDS011;23098;48.054;10.636;2023-02-28T07:00:22;7.15;;;3.63;;
37203;SDS011;23098;48.054;10.636;2023-02-28T07:02:48;16.95;;;8.65;;
37203;SDS011;23098;48.054;10.636;2023-02-28T07:05:14;12.00;;;6.57;;
37203;SDS011;23098;48.054;10.636;2023-02-28T07:07:39;5.20;;;4.00;;
37203;SDS011;23098;48.054;10.636;2023-02-28T07:10:09;11.93;;;6.05;;
37203;SDS011;23098;48.054;10.636;2023-02-28T07:12:36;6.70;;;4.22;;
37203;SDS011;23098;48.054;10.636;2023-02-28T07:15:02;16.60;;;8.90;;
37203;SDS011;23098;48.054;10.636;2023-02-28T07:17:29;4.20;;;3.15;;
37203;SDS011;23098;48.054;10.636;2023-02-28T07:19:54;13.65;;;7.45;;
37203;SDS011;23098;48.054;10.636;2023-02-28T07:22:20;14.73;;;8.45;;
37203;SDS011;23098;48.054;10.636;2023-02-28T07:24:47;10.35;;;5.70;;
37203;SDS011;23098;48.054;10.636;2023-02-28T07:27:13;11.90;;;6.55;;
37203;SDS011;23098;48.054;10.636;2023-02-28T07:29:48;11.40;;;7.13;;
37203;SDS011;23098;48.054;10.636;2023-02-28T07:32:19;10.65;;;6.50;;
37203;SDS011;23098;48.054;10.636;2023-02-28T07:34:45;12.18;;;5.25;;
37203;SDS011;23098;48.054;10.636;2023-02-28T07:37:11;10.68;;;4.97;;
37203;SDS011;23098;48.054;10.636;2023-02-28T07:39:36;16.48;;;10.07;;
37203;SDS011;23098;48.054;10.636;2023-02-28T07:42:05;16.50;;;9.32;;
37203;SDS011;23098;48.054;10.636;2023-02-28T07:44:31;11.88;;;6.40;;
37203;SDS011;23098;48.054;10.636;2023-02-28T07:46:57;10.35;;;6.13;;
37203;SDS011;23098;48.054;10.636;2023-02-28T07:49:23;9.90;;;5.90;;
37203;SDS011;23098;48.054;10.636;2023-02-28T07:51:48;10.90;;;5.18;;
37203;SDS011;23098;48.054;10.636;2023-02-28T07:54:14;7.38;;;4.50;;
37203;SDS011;23098;48.054;10.636;2023-02-28T07:56:40;5.72;;;4.10;;
37203;SDS011;23098;48.054;10.636;2023-02-28T07:59:06;13.13;;;7.07;;
37203;SDS011;23098;48.054;10.636;2023-02-28T08:01:31;8.52;;;4.35;;
37203;SDS011;23098;48.054;10.636;2023-02-28T08:03:58;10.50;;;5.00;;
37203;SDS011;23098;48.054;10.636;2023-02-28T08:06:24;12.82;;;6.78;;
37203;SDS011;23098;48.054;10.636;2023-02-28T08:08:51;10.32;;;6.20;;
37203;SDS011;23098;48.054;10.636;2023-02-28T08:11:18;16.27;;;8.23;;
37203;SDS011;23098;48.054;10.636;2023-02-28T08:13:44;16.60;;;8.32;;
37203;SDS011;23098;48.054;10.636;2023-02-28T08:16:12;11.55;;;5.72;;
37203;SDS011;23098;48.054;10.636;2023-02-28T08:18:46;9.60;;;5.50;;
37203;SDS011;23098;48.054;10.636;2023-02-28T08:21:13;4.63;;;2.80;;
37203;SDS011;23098;48.054;10.636;2023-02-28T08:23:38;15.00;;;8.10;;
37203;SDS011;23098;48.054;10.636;2023-02-28T08:26:04;11.05;;;4.90;;
37203;SDS011;23098;48.054;10.636;2023-02-28T08:28:30;7.53;;;4.55;;
37203;SDS011;23098;48.054;10.636;2023-02-28T08:30:55;13.23;;;8.55;;
37203;SDS011;23098;48.054;10.636;2023-02-28T08:33:21;13.90;;;7.00;;
37203;SDS011;23098;48.054;10.636;2023-02-28T08:35:48;14.18;;;7.55;;
37203;SDS011;23098;48.054;10.636;2023-02-28T08:38:13;13.18;;;7.95;;
37203;SDS011;23098;48.054;10.636;2023-02-28T08:40:39;10.77;;;6.07;;
37203;SDS011;23098;48.054;10.636;2023-02-28T08:43:05;11.32;;;6.03;;
37203;SDS011;23098;48.054;10.636;2023-02-28T08:45:31;7.10;;;3.97;;
37203;SDS011;23098;48.054;10.636;2023-02-28T08:47:56;10.02;;;6.07;;
37203;SDS011;23098;48.054;10.636;2023-02-28T08:50:22;16.40;;;9.65;;
37203;SDS011;23098;48.054;10.636;2023-02-28T08:52:47;14.20;;;6.60;;
37203;SDS011;23098;48.054;10.636;2023-02-28T08:55:13;13.93;;;7.72;;
37203;SDS011;23098;48.054;10.636;2023-02-28T08:57:38;9.05;;;5.43;;
37203;SDS011;23098;48.054;10.636;2023-02-28T09:00:04;10.68;;;6.20;;
37203;SDS011;23098;48.054;10.636;2023-02-28T09:02:31;5.20;;;3.65;;
37203;SDS011;23098;48.054;10.636;2023-02-28T09:04:57;7.85;;;4.57;;
37203;SDS011;23098;48.054;10.636;2023-02-28T09:07:23;9.45;;;4.95;;
37203;SDS011;23098;48.054;10.636;2023-02-28T09:09:49;9.63;;;6.03;;
37203;SDS011;23098;48.054;10.636;2023-02-28T09:12:23;17.30;;;9.52;;
37203;SDS011;23098;48.054;10.636;2023-02-28T09:14:50;8.83;;;5.60;;
37203;SDS011;23098;48.054;10.636;2023-02-28T09:17:16;10.25;;;5.18;;
37203;SDS011;23098;48.054;10.636;2023-02-28T09:19:42;10.15;;;5.20;;
37203;SDS011;23098;48.054;10.636;2023-02-28T09:22:08;12.70;;;6.85;;
37203;SDS011;23098;48.054;10.636;2023-02-28T09:24:35;17.95;;;10.07;;
37203;SDS011;23098;48.054;10.636;2023-02-28T09:27:02;18.73;;;9.20;;
37203;SDS011;23098;48.054;10.636;2023-02-28T09:29:27;15.13;;;8.90;;
37203;SDS011;23098;48.054;10.636;2023-02-28T09:31:53;15.18;;;8.40;;
37203;SDS011;23098;48.054;10.636;2023-02-28T09:34:19;13.90;;;7.45;;
37203;SDS011;23098;48.054;10.636;2023-02-28T09:36:44;16.65;;;9.18;;
37203;SDS011;23098;48.054;10.636;2023-02-28T09:39:10;13.00;;;6.97;;
37203;SDS011;23098;48.054;10.636;2023-02-28T09:41:38;11.65;;;7.10;;
37203;SDS011;23098;48.054;10.636;2023-02-28T09:44:33;8.73;;;4.82;;
37203;SDS011;23098;48.054;10.636;2023-02-28T09:48:04;8.70;;;5.53;;
37203;SDS011;23098;48.054;10.636;2023-02-28T09:50:03;22.02;;;10.00;;
37203;SDS011;23098;48.054;10.636;2023-02-28T09:52:39;13.85;;;7.85;;
37203;SDS011;23098;48.054;10.636;2023-02-28T09:55:51;16.77;;;9.07;;
37203;SDS011;23098;48.054;10.636;2023-02-28T09:58:03;7.85;;;4.60;;
37203;SDS011;23098;48.054;10.636;2023-02-28T10:00:33;15.45;;;8.90;;
37203;SDS011;23098;48.054;10.636;2023-02-28T10:06:13;13.95;;;8.73;;
37203;SDS011;23098;48.054;10.636;2023-02-28T10:11:22;14.38;;;6.90;;
37203;SDS011;23098;48.054;10.636;2023-02-28T10:19:06;15.43;;;9.13;;
37203;SDS011;23098;48.054;10.636;2023-02-28T10:21:55;15.32;;;8.57;;
37203;SDS011;23098;48.054;10.636;2023-02-28T10:26:56;11.70;;;7.38;;
37203;SDS011;23098;48.054;10.636;2023-02-28T10:29:26;5.32;;;3.72;;
37203;SDS011;23098;48.054;10.636;2023-02-28T10:31:52;10.35;;;6.18;;
37203;SDS011;23098;48.054;10.636;2023-02-28T10:34:18;17.92;;;8.50;;
37203;SDS011;23098;48.054;10.636;2023-02-28T10:36:43;19.98;;;10.57;;
37203;SDS011;23098;48.054;10.636;2023-02-28T10:42:18;14.70;;;7.57;;
37203;SDS011;23098;48.054;10.636;2023-02-28T10:45:04;13.32;;;7.43;;
37203;SDS011;23098;48.054;10.636;2023-02-28T10:47:34;10.35;;;6.53;;
37203;SDS011;23098;48.054;10.636;2023-02-28T10:50:26;10.48;;;6.65;;
37203;SDS011;23098;48.054;10.636;2023-02-28T10:52:52;21.05;;;11.55;;
37203;SDS011;23098;48.054;10.636;2023-02-28T10:55:23;20.08;;;8.68;;
37203;SDS011;23098;48.054;10.636;2023-02-28T10:57:50;12.35;;;6.60;;
37203;SDS011;23098;48.054;10.636;2023-02-28T11:02:46;19.50;;;10.68;;
37203;SDS011;23098;48.054;10.636;2023-02-28T11:07:56;8.68;;;5.90;;
37203;SDS011;23098;48.054;10.636;2023-02-28T11:10:30;16.70;;;9.32;;
37203;SDS011;23098;48.054;10.636;2023-02-28T11:12:59;6.57;;;4.45;;
37203;SDS011;23098;48.054;10.636;2023-02-28T11:15:26;6.38;;;3.90;;
37203;SDS011;23098;48.054;10.636;2023-02-28T11:17:55;18.27;;;9.75;;
37203;SDS011;23098;48.054;10.636;2023-02-28T11:20:40;15.40;;;6.80;;
37203;SDS011;23098;48.054;10.636;2023-02-28T11:23:05;16.92;;;9.88;;
37203;SDS011;23098;48.054;10.636;2023-02-28T11:25:38;17.55;;;9.30;;
37203;SDS011;23098;48.054;10.636;2023-02-28T11:28:05;18.02;;;7.72;;
37203;SDS011;23098;48.054;10.636;2023-02-28T11:30:49;17.42;;;9.68;;
37203;SDS011;23098;48.054;10.636;2023-02-28T11:36:19;7.00;;;3.92;;
37203;SDS011;23098;48.054;10.636;2023-02-28T11:38:49;18.15;;;11.48;;
37203;SDS011;23098;48.054;10.636;2023-02-28T11:41:27;16.42;;;7.75;;
37203;SDS011;23098;48.054;10.636;2023-02-28T11:46:41;15.48;;;8.10;;
37203;SDS011;23098;48.054;10.636;2023-02-28T11:52:06;16.05;;;9.57;;
37203;SDS011;23098;48.054;10.636;2023-02-28T12:03:40;19.35;;;11.20;;
37203;SDS011;23098;48.054;10.636;2023-02-28T12:06:36;13.07;;;8.27;;
37203;SDS011;23098;48.054;10.636;2023-02-28T12:12:10;19.23;;;10.38;;
37203;SDS011;23098;48.054;10.636;2023-02-28T12:15:01;10.65;;;6.22;;
37203;SDS011;23098;48.054;10.636;2023-02-28T12:23:09;10.82;;;5.68;;
37203;SDS011;23098;48.054;10.636;2023-02-28T12:28:38;14.82;;;7.55;;
37203;SDS011;23098;48.054;10.636;2023-02-28T12:31:14;24.77;;;11.65;;
37203;SDS011;23098;48.054;10.636;2023-02-28T12:33:46;12.20;;;7.20;;
37203;SDS011;23098;48.054;10.636;2023-02-28T12:36:17;13.93;;;8.25;;
37203;SDS011;23098;48.054;10.636;2023-02-28T12:39:00;17.08;;;10.07;;
37203;SDS011;23098;48.054;10.636;2023-02-28T12:44:14;16.33;;;7.80;;
37203;SDS011;23098;48.054;10.636;2023-02-28T12:46:46;13.68;;;8.20;;
37203;SDS011;23098;48.054;10.636;2023-02-28T12:49:16;13.27;;;7.05;;
37203;SDS011;23098;48.054;10.636;2023-02-28T12:51:46;22.15;;;12.35;;
37203;SDS011;23098;48.054;10.636;2023-02-28T12:54:16;12.45;;;6.88;;
37203;SDS011;23098;48.054;10.636;2023-02-28T12:59:40;17.58;;;9.90;;
37203;SDS011;23098;48.054;10.636;2023-02-28T13:05:18;18.75;;;10.95;;
37203;SDS011;23098;48.054;10.636;2023-02-28T13:08:30;24.95;;;11.80;;
37203;SDS011;23098;48.054;10.636;2023-02-28T13:11:01;15.05;;;8.48;;
37203;SDS011;23098;48.054;10.636;2023-02-28T13:13:27;20.80;;;10.68;;
37203;SDS011;23098;48.054;10.636;2023-02-28T13:15:59;16.60;;;8.48;;
37203;SDS011;23098;48.054;10.636;2023-02-28T13:18:33;19.90;;;11.38;;
37203;SDS011;23098;48.054;10.636;2023-02-28T13:21:05;14.68;;;9.18;;
37203;SDS011;23098;48.054;10.636;2023-02-28T13:26:16;22.92;;;11.68;;
37203;SDS011;23098;48.054;10.636;2023-02-28T13:31:13;12.85;;;8.18;;
37203;SDS011;23098;48.054;10.636;2023-02-28T13:41:49;15.73;;;8.80;;
37203;SDS011;23098;48.054;10.636;2023-02-28T13:44:22;16.30;;;9.55;;
37203;SDS011;23098;48.054;10.636;2023-02-28T13:49:35;11.65;;;7.40;;
37203;SDS011;23098;48.054;10.636;2023-02-28T14:11:53;18.70;;;10.27;;
37203;SDS011;23098;48.054;10.636;2023-02-28T14:17:08;18.08;;;10.35;;
37203;SDS011;23098;48.054;10.636;2023-02-28T14:19:39;16.77;;;10.60;;
37203;SDS011;23098;48.054;10.636;2023-02-28T14:25:09;16.10;;;9.38;;
37203;SDS011;23098;48.054;10.636;2023-02-28T14:33:22;13.30;;;7.90;;
37203;SDS011;23098;48.054;10.636;2023-02-28T14:36:17;18.88;;;9.93;;
37203;SDS011;23098;48.054;10.636;2023-02-28T14:38:47;11.60;;;7.03;;
37203;SDS011;23098;48.054;10.636;2023-02-28T14:44:02;20.40;;;10.98;;
37203;SDS011;23098;48.054;10.636;2023-02-28T14:46:39;9.63;;;5.63;;
37203;SDS011;23098;48.054;10.636;2023-02-28T14:49:06;20.00;;;10.40;;
37203;SDS011;23098;48.054;10.636;2023-02-28T14:51:40;17.80;;;10.55;;
37203;SDS011;23098;48.054;10.636;2023-02-28T14:54:06;21.40;;;10.95;;
37203;SDS011;23098;48.054;10.636;2023-02-28T14:56:38;17.33;;;10.30;;
37203;SDS011;23098;48.054;10.636;2023-02-28T14:59:05;19.15;;;11.07;;
37203;SDS011;23098;48.054;10.636;2023-02-28T15:01:49;19.08;;;11.60;;
37203;SDS011;23098;48.054;10.636;2023-02-28T15:04:18;15.60;;;8.90;;
37203;SDS011;23098;48.054;10.636;2023-02-28T15:09:34;14.00;;;8.07;;
37203;SDS011;23098;48.054;10.636;2023-02-28T15:12:00;17.40;;;11.02;;
37203;SDS011;23098;48.054;10.636;2023-02-28T15:14:27;17.63;;;9.95;;
37203;SDS011;23098;48.054;10.636;2023-02-28T15:16:56;14.57;;;7.90;;
37203;SDS011;23098;48.054;10.636;2023-02-28T15:19:26;13.05;;;8.13;;
37203;SDS011;23098;48.054;10.636;2023-02-28T15:27:06;10.88;;;6.28;;
37203;SDS011;23098;48.054;10.636;2023-02-28T15:29:42;12.27;;;7.53;;
37203;SDS011;23098;48.054;10.636;2023-02-28T15:35:00;13.95;;;7.97;;
37203;SDS011;23098;48.054;10.636;2023-02-28T15:37:57;18.10;;;9.27;;
37203;SDS011;23098;48.054;10.636;2023-02-28T15:40:43;15.13;;;8.85;;
37203;SDS011;23098;48.054;10.636;2023-02-28T15:43:16;16.48;;;8.98;;
37203;SDS011;23098;48.054;10.636;2023-02-28T15:45:45;17.23;;;9.95;;
37203;SDS011;23098;48.054;10.636;2023-02-28T15:50:50;17.15;;;10.48;;
37203;SDS011;23098;48.054;10.636;2023-02-28T15:53:27;17.48;;;10.10;;
37203;SDS011;23098;48.054;10.636;2023-02-28T15:55:58;20.58;;;10.98;;
37203;SDS011;23098;48.054;10.636;2023-02-28T15:58:38;20.65;;;11.35;;
37203;SDS011;23098;48.054;10.636;2023-02-28T16:01:06;21.95;;;11.95;;
37203;SDS011;23098;48.054;10.636;2023-02-28T16:03:41;23.27;;;11.27;;
37203;SDS011;23098;48.054;10.636;2023-02-28T16:08:41;20.48;;;11.75;;
37203;SDS011;23098;48.054;10.636;2023-02-28T16:11:11;16.60;;;10.13;;
37203;SDS011;23098;48.054;10.636;2023-02-28T16:13:36;20.00;;;11.60;;
37203;SDS011;23098;48.054;10.636;2023-02-28T16:16:02;22.00;;;12.32;;
37203;SDS011;23098;48.054;10.636;2023-02-28T16:18:28;25.17;;;13.95;;
37203;SDS011;23098;48.054;10.636;2023-02-28T16:20:55;21.35;;;13.30;;
37203;SDS011;23098;48.054;10.636;2023-02-28T16:23:21;26.25;;;15.13;;
37203;SDS011;23098;48.054;10.636;2023-02-28T16:25:46;22.65;;;14.43;;
37203;SDS011;23098;48.054;10.636;2023-02-28T16:28:15;23.52;;;14.10;;
37203;SDS011;23098;48.054;10.636;2023-02-28T16:31:03;22.33;;;12.85;;
37203;SDS011;23098;48.054;10.636;2023-02-28T16:33:31;23.00;;;13.75;;
37203;SDS011;23098;48.054;10.636;2023-02-28T16:35:58;26.98;;;16.30;;
37203;SDS011;23098;48.054;10.636;2023-02-28T16:38:24;36.90;;;19.50;;
37203;SDS011;23098;48.054;10.636;2023-02-28T16:40:51;41.63;;;20.75;;
37203;SDS011;23098;48.054;10.636;2023-02-28T16:43:18;31.73;;;15.93;;
37203;SDS011;23098;48.054;10.636;2023-02-28T16:48:19;28.98;;;15.30;;
37203;SDS011;23098;48.054;10.636;2023-02-28T16:50:44;26.50;;;14.80;;
37203;SDS011;23098;48.054;10.636;2023-02-28T16:53:10;24.52;;;15.27;;
37203;SDS011;23098;48.054;10.636;2023-02-28T16:55:35;27.65;;;16.13;;
37203;SDS011;23098;48.054;10.636;2023-02-28T16:58:02;27.58;;;16.05;;
37203;SDS011;23098;48.054;10.636;2023-02-28T17:00:28;27.02;;;15.02;;
37203;SDS011;23098;48.054;10.636;2023-02-28T17:02:56;25.80;;;15.18;;
37203;SDS011;23098;48.054;10.636;2023-02-28T17:05:22;27.52;;;15.63;;
37203;SDS011;23098;48.054;10.636;2023-02-28T17:07:48;29.42;;;15.60;;
37203;SDS011;23098;48.054;10.636;2023-02-28T17:12:43;34.60;;;16.63;;
37203;SDS011;23098;48.054;10.636;2023-02-28T17:15:12;35.10;;;17.02;;
37203;SDS011;23098;48.054;10.636;2023-02-28T17:17:39;40.67;;;20.25;;
37203;SDS011;23098;48.054;10.636;2023-02-28T17:20:05;29.80;;;16.67;;